sensor_id;sensor_type;location;lat;lon;timestamp;P1;durP1;ratioP1;P2;durP2;ratioP2
64936;SDS011;51452;47.698;19.050;2022-11-20T00:01:16;17.75;;;8.55;;
64936;SDS011;51452;47.698;19.050;2022-11-20T00:03:43;20.98;;;8.57;;
64936;SDS011;51452;47.698;19.050;2022-11-20T00:06:13;20.57;;;8.97;;
64936;SDS011;51452;47.698;19.050;2022-11-20T00:08:40;22.60;;;9.37;;
64936;SDS011;51452;47.698;19.050;2022-11-20T00:11:07;23.53;;;11.17;;
64936;SDS011;51452;47.698;19.050;2022-11-20T00:13:37;24.40;;;10.43;;
64936;SDS011;51452;47.698;19.050;2022-11-20T00:16:03;27.57;;;11.40;;
64936;SDS011;51452;47.698;19.050;2022-11-20T00:18:30;28.90;;;11.50;;
64936;SDS011;51452;47.698;19.050;2022-11-20T00:21:01;22.40;;;9.97;;
64936;SDS011;51452;47.698;19.050;2022-11-20T00:23:46;24.30;;;9.93;;
64936;SDS011;51452;47.698;19.050;2022-11-20T00:26:13;23.33;;;10.20;;
64936;SDS011;51452;47.698;19.050;2022-11-20T00:28:41;27.27;;;10.37;;
64936;SDS011;51452;47.698;19.050;2022-11-20T00:31:11;29.30;;;11.47;;
64936;SDS011;51452;47.698;19.050;2022-11-20T00:33:39;22.20;;;9.97;;
64936;SDS011;51452;47.698;19.050;2022-11-20T00:36:06;23.63;;;10.43;;
64936;SDS011;51452;47.698;19.050;2022-11-20T00:38:39;29.90;;;11.90;;
64936;SDS011;51452;47.698;19.050;2022-11-20T00:41:05;28.23;;;11.70;;
64936;SDS011;51452;47.698;19.050;2022-11-20T00:43:33;24.57;;;10.63;;
64936;SDS011;51452;47.698;19.050;2022-11-20T00:46:09;28.30;;;11.73;;
64936;SDS011;51452;47.698;19.050;2022-11-20T00:48:39;28.17;;;11.67;;
64936;SDS011;51452;47.698;19.050;2022-11-20T00:51:04;28.17;;;11.40;;
64936;SDS011;51452;47.698;19.050;2022-11-20T00:53:30;26.93;;;11.73;;
64936;SDS011;51452;47.698;19.050;2022-11-20T00:55:57;29.40;;;12.00;;
64936;SDS011;51452;47.698;19.050;2022-11-20T00:58:30;26.37;;;11.37;;
64936;SDS011;51452;47.698;19.050;2022-11-20T01:01:04;24.63;;;11.43;;
64936;SDS011;51452;47.698;19.050;2022-11-20T01:03:38;23.80;;;10.83;;
64936;SDS011;51452;47.698;19.050;2022-11-20T01:06:15;29.83;;;11.73;;
64936;SDS011;51452;47.698;19.050;2022-11-20T01:08:45;29.03;;;11.90;;
64936;SDS011;51452;47.698;19.050;2022-11-20T01:11:12;26.67;;;10.57;;
64936;SDS011;51452;47.698;19.050;2022-11-20T01:13:39;20.83;;;10.17;;
64936;SDS011;51452;47.698;19.050;2022-11-20T01:18:40;26.37;;;12.00;;
64936;SDS011;51452;47.698;19.050;2022-11-20T01:21:08;23.47;;;11.20;;
64936;SDS011;51452;47.698;19.050;2022-11-20T01:23:39;23.90;;;10.13;;
64936;SDS011;51452;47.698;19.050;2022-11-20T01:26:10;24.77;;;10.20;;
64936;SDS011;51452;47.698;19.050;2022-11-20T01:28:37;25.30;;;11.67;;
64936;SDS011;51452;47.698;19.050;2022-11-20T01:31:10;25.30;;;11.20;;
64936;SDS011;51452;47.698;19.050;2022-11-20T01:33:41;24.33;;;10.40;;
64936;SDS011;51452;47.698;19.050;2022-11-20T01:36:08;29.23;;;12.20;;
64936;SDS011;51452;47.698;19.050;2022-11-20T01:38:35;23.97;;;11.17;;
64936;SDS011;51452;47.698;19.050;2022-11-20T01:41:00;26.87;;;11.03;;
64936;SDS011;51452;47.698;19.050;2022-11-20T01:43:26;25.87;;;11.37;;
64936;SDS011;51452;47.698;19.050;2022-11-20T01:51:20;26.83;;;11.63;;
64936;SDS011;51452;47.698;19.050;2022-11-20T01:53:50;25.17;;;11.52;;
64936;SDS011;51452;47.698;19.050;2022-11-20T01:56:18;28.07;;;12.10;;
64936;SDS011;51452;47.698;19.050;2022-11-20T01:58:45;30.60;;;13.23;;
64936;SDS011;51452;47.698;19.050;2022-11-20T02:01:18;31.60;;;13.07;;
64936;SDS011;51452;47.698;19.050;2022-11-20T02:03:43;31.43;;;13.03;;
64936;SDS011;51452;47.698;19.050;2022-11-20T02:08:44;27.97;;;12.60;;
64936;SDS011;51452;47.698;19.050;2022-11-20T02:11:09;27.13;;;11.70;;
64936;SDS011;51452;47.698;19.050;2022-11-20T02:13:41;24.97;;;11.60;;
64936;SDS011;51452;47.698;19.050;2022-11-20T02:16:28;29.97;;;13.03;;
64936;SDS011;51452;47.698;19.050;2022-11-20T02:18:58;27.43;;;11.70;;
64936;SDS011;51452;47.698;19.050;2022-11-20T02:21:34;28.07;;;12.30;;
64936;SDS011;51452;47.698;19.050;2022-11-20T02:24:12;29.87;;;11.97;;
64936;SDS011;51452;47.698;19.050;2022-11-20T02:26:41;23.92;;;10.88;;
64936;SDS011;51452;47.698;19.050;2022-11-20T02:29:31;25.50;;;11.67;;
64936;SDS011;51452;47.698;19.050;2022-11-20T02:32:00;22.73;;;10.70;;
64936;SDS011;51452;47.698;19.050;2022-11-20T02:34:27;24.23;;;10.77;;
64936;SDS011;51452;47.698;19.050;2022-11-20T02:36:52;28.60;;;11.00;;
64936;SDS011;51452;47.698;19.050;2022-11-20T02:39:18;25.13;;;11.20;;
64936;SDS011;51452;47.698;19.050;2022-11-20T02:41:45;25.30;;;10.87;;
64936;SDS011;51452;47.698;19.050;2022-11-20T02:44:11;26.27;;;12.07;;
64936;SDS011;51452;47.698;19.050;2022-11-20T02:46:36;28.17;;;11.87;;
64936;SDS011;51452;47.698;19.050;2022-11-20T02:49:02;27.60;;;12.07;;
64936;SDS011;51452;47.698;19.050;2022-11-20T02:51:28;24.17;;;11.27;;
64936;SDS011;51452;47.698;19.050;2022-11-20T02:54:06;25.63;;;11.73;;
64936;SDS011;51452;47.698;19.050;2022-11-20T02:56:31;27.70;;;12.10;;
64936;SDS011;51452;47.698;19.050;2022-11-20T02:58:56;24.77;;;11.97;;
64936;SDS011;51452;47.698;19.050;2022-11-20T03:01:22;25.43;;;11.63;;
64936;SDS011;51452;47.698;19.050;2022-11-20T03:03:47;28.53;;;11.80;;
64936;SDS011;51452;47.698;19.050;2022-11-20T03:06:13;26.07;;;11.37;;
64936;SDS011;51452;47.698;19.050;2022-11-20T03:08:40;23.63;;;11.90;;
64936;SDS011;51452;47.698;19.050;2022-11-20T03:11:06;26.93;;;11.33;;
64936;SDS011;51452;47.698;19.050;2022-11-20T03:13:32;25.07;;;11.13;;
64936;SDS011;51452;47.698;19.050;2022-11-20T03:16:04;28.37;;;12.67;;
64936;SDS011;51452;47.698;19.050;2022-11-20T03:18:33;28.08;;;12.30;;
64936;SDS011;51452;47.698;19.050;2022-11-20T03:20:59;26.70;;;11.67;;
64936;SDS011;51452;47.698;19.050;2022-11-20T03:23:24;31.27;;;12.57;;
64936;SDS011;51452;47.698;19.050;2022-11-20T03:25:50;27.97;;;11.50;;
64936;SDS011;51452;47.698;19.050;2022-11-20T03:28:15;28.67;;;12.33;;
64936;SDS011;51452;47.698;19.050;2022-11-20T03:30:41;25.23;;;11.30;;
64936;SDS011;51452;47.698;19.050;2022-11-20T03:33:06;28.20;;;11.73;;
64936;SDS011;51452;47.698;19.050;2022-11-20T03:35:31;27.63;;;12.67;;
64936;SDS011;51452;47.698;19.050;2022-11-20T03:37:57;26.90;;;12.50;;
64936;SDS011;51452;47.698;19.050;2022-11-20T03:40:25;29.40;;;11.77;;
64936;SDS011;51452;47.698;19.050;2022-11-20T03:42:51;28.27;;;12.57;;
64936;SDS011;51452;47.698;19.050;2022-11-20T03:45:16;23.30;;;11.43;;
64936;SDS011;51452;47.698;19.050;2022-11-20T03:47:43;27.10;;;12.93;;
64936;SDS011;51452;47.698;19.050;2022-11-20T03:50:10;29.20;;;12.10;;
64936;SDS011;51452;47.698;19.050;2022-11-20T03:52:38;24.23;;;12.00;;
64936;SDS011;51452;47.698;19.050;2022-11-20T03:55:04;24.20;;;12.00;;
64936;SDS011;51452;47.698;19.050;2022-11-20T03:57:30;26.37;;;11.97;;
64936;SDS011;51452;47.698;19.050;2022-11-20T03:59:55;25.67;;;11.87;;
64936;SDS011;51452;47.698;19.050;2022-11-20T04:02:20;29.30;;;12.77;;
64936;SDS011;51452;47.698;19.050;2022-11-20T04:04:46;26.90;;;12.33;;
64936;SDS011;51452;47.698;19.050;2022-11-20T04:07:11;27.20;;;12.33;;
64936;SDS011;51452;47.698;19.050;2022-11-20T04:09:36;25.17;;;11.37;;
64936;SDS011;51452;47.698;19.050;2022-11-20T04:12:02;25.77;;;12.33;;
64936;SDS011;51452;47.698;19.050;2022-11-20T04:14:27;27.17;;;11.80;;
64936;SDS011;51452;47.698;19.050;2022-11-20T04:16:53;27.57;;;12.30;;
64936;SDS011;51452;47.698;19.050;2022-11-20T04:19:18;24.73;;;11.70;;
64936;SDS011;51452;47.698;19.050;2022-11-20T04:21:43;26.47;;;12.70;;
64936;SDS011;51452;47.698;19.050;2022-11-20T04:24:09;27.97;;;11.43;;
64936;SDS011;51452;47.698;19.050;2022-11-20T04:26:38;25.47;;;11.90;;
64936;SDS011;51452;47.698;19.050;2022-11-20T04:29:09;22.40;;;10.20;;
64936;SDS011;51452;47.698;19.050;2022-11-20T04:31:36;24.37;;;11.63;;
64936;SDS011;51452;47.698;19.050;2022-11-20T04:34:02;27.07;;;12.50;;
64936;SDS011;51452;47.698;19.050;2022-11-20T04:36:29;25.43;;;11.60;;
64936;SDS011;51452;47.698;19.050;2022-11-20T04:38:56;25.70;;;11.57;;
64936;SDS011;51452;47.698;19.050;2022-11-20T04:41:23;22.80;;;11.53;;
64936;SDS011;51452;47.698;19.050;2022-11-20T04:43:54;26.97;;;11.33;;
64936;SDS011;51452;47.698;19.050;2022-11-20T04:46:31;22.57;;;10.27;;
64936;SDS011;51452;47.698;19.050;2022-11-20T04:48:58;22.37;;;11.17;;
64936;SDS011;51452;47.698;19.050;2022-11-20T04:51:24;25.47;;;11.47;;
64936;SDS011;51452;47.698;19.050;2022-11-20T04:53:49;24.53;;;11.10;;
64936;SDS011;51452;47.698;19.050;2022-11-20T04:56:15;25.77;;;11.57;;
64936;SDS011;51452;47.698;19.050;2022-11-20T04:58:41;27.60;;;11.13;;
64936;SDS011;51452;47.698;19.050;2022-11-20T05:01:16;28.17;;;11.80;;
64936;SDS011;51452;47.698;19.050;2022-11-20T05:03:44;28.37;;;11.50;;
64936;SDS011;51452;47.698;19.050;2022-11-20T05:06:11;26.23;;;11.50;;
64936;SDS011;51452;47.698;19.050;2022-11-20T05:08:38;24.00;;;11.57;;
64936;SDS011;51452;47.698;19.050;2022-11-20T05:11:04;25.43;;;11.87;;
64936;SDS011;51452;47.698;19.050;2022-11-20T05:13:40;26.02;;;11.88;;
64936;SDS011;51452;47.698;19.050;2022-11-20T05:16:07;24.90;;;11.03;;
64936;SDS011;51452;47.698;19.050;2022-11-20T05:18:34;27.13;;;11.73;;
64936;SDS011;51452;47.698;19.050;2022-11-20T05:21:03;24.17;;;11.77;;
64936;SDS011;51452;47.698;19.050;2022-11-20T05:23:29;26.67;;;11.13;;
64936;SDS011;51452;47.698;19.050;2022-11-20T05:25:56;27.97;;;12.03;;
64936;SDS011;51452;47.698;19.050;2022-11-20T05:28:22;25.13;;;11.00;;
64936;SDS011;51452;47.698;19.050;2022-11-20T05:30:48;23.03;;;10.93;;
64936;SDS011;51452;47.698;19.050;2022-11-20T05:33:14;23.40;;;10.30;;
64936;SDS011;51452;47.698;19.050;2022-11-20T05:35:40;25.10;;;10.80;;
64936;SDS011;51452;47.698;19.050;2022-11-20T05:38:05;25.30;;;12.27;;
64936;SDS011;51452;47.698;19.050;2022-11-20T05:40:31;22.70;;;10.47;;
64936;SDS011;51452;47.698;19.050;2022-11-20T05:42:56;33.17;;;11.53;;
64936;SDS011;51452;47.698;19.050;2022-11-20T05:45:21;26.63;;;11.93;;
64936;SDS011;51452;47.698;19.050;2022-11-20T05:47:47;22.73;;;10.90;;
64936;SDS011;51452;47.698;19.050;2022-11-20T05:50:13;22.00;;;11.07;;
64936;SDS011;51452;47.698;19.050;2022-11-20T05:52:39;21.20;;;10.27;;
64936;SDS011;51452;47.698;19.050;2022-11-20T05:55:05;20.83;;;10.03;;
64936;SDS011;51452;47.698;19.050;2022-11-20T05:57:30;21.23;;;10.40;;
64936;SDS011;51452;47.698;19.050;2022-11-20T05:59:56;19.57;;;9.73;;
64936;SDS011;51452;47.698;19.050;2022-11-20T06:02:21;22.13;;;10.30;;
64936;SDS011;51452;47.698;19.050;2022-11-20T06:04:47;23.50;;;10.17;;
64936;SDS011;51452;47.698;19.050;2022-11-20T06:07:12;20.33;;;9.33;;
64936;SDS011;51452;47.698;19.050;2022-11-20T06:09:38;20.90;;;10.63;;
64936;SDS011;51452;47.698;19.050;2022-11-20T06:12:03;21.23;;;9.40;;
64936;SDS011;51452;47.698;19.050;2022-11-20T06:14:29;21.70;;;10.17;;
64936;SDS011;51452;47.698;19.050;2022-11-20T06:16:54;22.70;;;10.77;;
64936;SDS011;51452;47.698;19.050;2022-11-20T06:19:20;20.03;;;9.80;;
64936;SDS011;51452;47.698;19.050;2022-11-20T06:21:45;20.50;;;10.63;;
64936;SDS011;51452;47.698;19.050;2022-11-20T06:24:12;22.20;;;10.00;;
64936;SDS011;51452;47.698;19.050;2022-11-20T06:26:38;22.70;;;10.90;;
64936;SDS011;51452;47.698;19.050;2022-11-20T06:29:03;22.13;;;10.43;;
64936;SDS011;51452;47.698;19.050;2022-11-20T06:31:29;24.53;;;10.87;;
64936;SDS011;51452;47.698;19.050;2022-11-20T06:33:54;23.33;;;10.83;;
64936;SDS011;51452;47.698;19.050;2022-11-20T06:36:20;26.67;;;12.63;;
64936;SDS011;51452;47.698;19.050;2022-11-20T06:38:48;23.90;;;11.67;;
64936;SDS011;51452;47.698;19.050;2022-11-20T06:41:14;26.00;;;12.33;;
64936;SDS011;51452;47.698;19.050;2022-11-20T06:43:42;22.40;;;11.37;;
64936;SDS011;51452;47.698;19.050;2022-11-20T06:46:09;25.17;;;12.20;;
64936;SDS011;51452;47.698;19.050;2022-11-20T06:48:38;21.87;;;11.30;;
64936;SDS011;51452;47.698;19.050;2022-11-20T06:51:04;22.77;;;10.63;;
64936;SDS011;51452;47.698;19.050;2022-11-20T06:53:31;23.33;;;12.33;;
64936;SDS011;51452;47.698;19.050;2022-11-20T06:55:57;22.20;;;10.83;;
64936;SDS011;51452;47.698;19.050;2022-11-20T06:58:22;22.47;;;10.60;;
64936;SDS011;51452;47.698;19.050;2022-11-20T07:00:48;24.10;;;10.97;;
64936;SDS011;51452;47.698;19.050;2022-11-20T07:03:14;22.57;;;11.07;;
64936;SDS011;51452;47.698;19.050;2022-11-20T07:05:39;19.83;;;9.60;;
64936;SDS011;51452;47.698;19.050;2022-11-20T07:08:05;20.70;;;9.73;;
64936;SDS011;51452;47.698;19.050;2022-11-20T07:10:31;21.37;;;11.00;;
64936;SDS011;51452;47.698;19.050;2022-11-20T07:12:57;22.10;;;10.73;;
64936;SDS011;51452;47.698;19.050;2022-11-20T07:15:22;21.30;;;10.23;;
64936;SDS011;51452;47.698;19.050;2022-11-20T07:17:49;23.80;;;10.67;;
64936;SDS011;51452;47.698;19.050;2022-11-20T07:20:32;23.03;;;11.33;;
64936;SDS011;51452;47.698;19.050;2022-11-20T07:22:58;23.07;;;11.70;;
64936;SDS011;51452;47.698;19.050;2022-11-20T07:25:24;26.50;;;12.90;;
64936;SDS011;51452;47.698;19.050;2022-11-20T07:27:56;26.40;;;13.07;;
64936;SDS011;51452;47.698;19.050;2022-11-20T07:30:24;27.07;;;12.40;;
64936;SDS011;51452;47.698;19.050;2022-11-20T07:32:50;24.03;;;11.83;;
64936;SDS011;51452;47.698;19.050;2022-11-20T07:35:16;27.17;;;12.37;;
64936;SDS011;51452;47.698;19.050;2022-11-20T07:37:41;29.03;;;13.63;;
64936;SDS011;51452;47.698;19.050;2022-11-20T07:40:07;27.17;;;13.00;;
64936;SDS011;51452;47.698;19.050;2022-11-20T07:42:32;33.23;;;13.87;;
64936;SDS011;51452;47.698;19.050;2022-11-20T07:44:58;32.73;;;13.77;;
64936;SDS011;51452;47.698;19.050;2022-11-20T07:47:23;30.70;;;13.20;;
64936;SDS011;51452;47.698;19.050;2022-11-20T07:49:48;33.43;;;15.20;;
64936;SDS011;51452;47.698;19.050;2022-11-20T07:52:14;31.80;;;14.87;;
64936;SDS011;51452;47.698;19.050;2022-11-20T07:54:39;33.10;;;15.07;;
64936;SDS011;51452;47.698;19.050;2022-11-20T07:57:04;30.40;;;14.03;;
64936;SDS011;51452;47.698;19.050;2022-11-20T07:59:29;30.90;;;14.20;;
64936;SDS011;51452;47.698;19.050;2022-11-20T08:01:55;29.23;;;13.33;;
64936;SDS011;51452;47.698;19.050;2022-11-20T08:04:20;28.73;;;13.30;;
64936;SDS011;51452;47.698;19.050;2022-11-20T08:06:46;24.57;;;12.50;;
64936;SDS011;51452;47.698;19.050;2022-11-20T08:09:11;25.57;;;12.27;;
64936;SDS011;51452;47.698;19.050;2022-11-20T08:11:37;29.17;;;13.87;;
64936;SDS011;51452;47.698;19.050;2022-11-20T08:14:21;25.20;;;12.37;;
64936;SDS011;51452;47.698;19.050;2022-11-20T08:16:46;23.03;;;11.60;;
64936;SDS011;51452;47.698;19.050;2022-11-20T08:19:14;25.97;;;12.73;;
64936;SDS011;51452;47.698;19.050;2022-11-20T08:21:40;26.03;;;12.47;;
64936;SDS011;51452;47.698;19.050;2022-11-20T08:24:06;27.80;;;13.87;;
64936;SDS011;51452;47.698;19.050;2022-11-20T08:26:33;29.47;;;14.83;;
64936;SDS011;51452;47.698;19.050;2022-11-20T08:29:01;27.30;;;13.17;;
64936;SDS011;51452;47.698;19.050;2022-11-20T08:31:26;29.13;;;14.50;;
64936;SDS011;51452;47.698;19.050;2022-11-20T08:33:52;26.60;;;13.37;;
64936;SDS011;51452;47.698;19.050;2022-11-20T08:36:19;29.53;;;13.37;;
64936;SDS011;51452;47.698;19.050;2022-11-20T08:38:49;29.30;;;13.70;;
64936;SDS011;51452;47.698;19.050;2022-11-20T08:41:18;29.03;;;14.10;;
64936;SDS011;51452;47.698;19.050;2022-11-20T08:43:55;28.33;;;13.37;;
64936;SDS011;51452;47.698;19.050;2022-11-20T08:46:24;27.17;;;12.87;;
64936;SDS011;51452;47.698;19.050;2022-11-20T08:48:50;31.13;;;13.07;;
64936;SDS011;51452;47.698;19.050;2022-11-20T08:51:16;26.73;;;12.10;;
64936;SDS011;51452;47.698;19.050;2022-11-20T08:53:42;28.93;;;13.33;;
64936;SDS011;51452;47.698;19.050;2022-11-20T08:56:07;29.73;;;13.53;;
64936;SDS011;51452;47.698;19.050;2022-11-20T08:58:34;26.40;;;13.17;;
64936;SDS011;51452;47.698;19.050;2022-11-20T09:01:00;32.10;;;14.57;;
64936;SDS011;51452;47.698;19.050;2022-11-20T09:03:25;31.53;;;15.07;;
64936;SDS011;51452;47.698;19.050;2022-11-20T09:05:56;30.83;;;15.10;;
64936;SDS011;51452;47.698;19.050;2022-11-20T09:08:23;29.07;;;14.50;;
64936;SDS011;51452;47.698;19.050;2022-11-20T09:10:51;27.47;;;14.27;;
64936;SDS011;51452;47.698;19.050;2022-11-20T09:13:17;31.60;;;13.97;;
64936;SDS011;51452;47.698;19.050;2022-11-20T09:15:42;32.53;;;15.27;;
64936;SDS011;51452;47.698;19.050;2022-11-20T09:18:07;32.30;;;14.47;;
64936;SDS011;51452;47.698;19.050;2022-11-20T09:20:33;27.90;;;14.23;;
64936;SDS011;51452;47.698;19.050;2022-11-20T09:22:58;29.93;;;13.93;;
64936;SDS011;51452;47.698;19.050;2022-11-20T09:25:24;28.13;;;14.30;;
64936;SDS011;51452;47.698;19.050;2022-11-20T09:27:56;30.23;;;14.53;;
64936;SDS011;51452;47.698;19.050;2022-11-20T09:30:22;27.77;;;13.83;;
64936;SDS011;51452;47.698;19.050;2022-11-20T09:32:47;29.43;;;14.40;;
64936;SDS011;51452;47.698;19.050;2022-11-20T09:35:12;25.50;;;13.27;;
64936;SDS011;51452;47.698;19.050;2022-11-20T09:37:39;27.90;;;13.90;;
64936;SDS011;51452;47.698;19.050;2022-11-20T09:40:05;29.53;;;13.27;;
64936;SDS011;51452;47.698;19.050;2022-11-20T09:42:41;27.13;;;13.83;;
64936;SDS011;51452;47.698;19.050;2022-11-20T09:45:16;27.23;;;13.73;;
64936;SDS011;51452;47.698;19.050;2022-11-20T09:53:37;29.93;;;13.60;;
64936;SDS011;51452;47.698;19.050;2022-11-20T09:56:28;28.77;;;13.63;;
64936;SDS011;51452;47.698;19.050;2022-11-20T09:58:54;31.67;;;14.63;;
64936;SDS011;51452;47.698;19.050;2022-11-20T10:01:26;31.47;;;15.07;;
64936;SDS011;51452;47.698;19.050;2022-11-20T10:03:58;29.30;;;14.90;;
64936;SDS011;51452;47.698;19.050;2022-11-20T10:06:39;31.83;;;14.87;;
64936;SDS011;51452;47.698;19.050;2022-11-20T10:19:53;29.27;;;14.43;;
64936;SDS011;51452;47.698;19.050;2022-11-20T10:25:26;29.50;;;14.30;;
64936;SDS011;51452;47.698;19.050;2022-11-20T10:30:43;27.70;;;13.60;;
64936;SDS011;51452;47.698;19.050;2022-11-20T10:33:16;26.90;;;13.37;;
64936;SDS011;51452;47.698;19.050;2022-11-20T10:35:45;23.07;;;11.30;;
64936;SDS011;51452;47.698;19.050;2022-11-20T10:38:36;20.77;;;9.93;;
64936;SDS011;51452;47.698;19.050;2022-11-20T10:41:11;19.63;;;10.30;;
64936;SDS011;51452;47.698;19.050;2022-11-20T10:43:49;22.37;;;10.50;;
64936;SDS011;51452;47.698;19.050;2022-11-20T10:46:23;20.10;;;8.13;;
64936;SDS011;51452;47.698;19.050;2022-11-20T10:48:50;13.57;;;7.77;;
64936;SDS011;51452;47.698;19.050;2022-11-20T10:56:46;16.00;;;8.33;;
64936;SDS011;51452;47.698;19.050;2022-11-20T11:01:56;18.23;;;8.70;;
64936;SDS011;51452;47.698;19.050;2022-11-20T11:06:54;19.03;;;9.40;;
64936;SDS011;51452;47.698;19.050;2022-11-20T11:09:33;18.00;;;9.70;;
64936;SDS011;51452;47.698;19.050;2022-11-20T11:12:05;22.87;;;10.00;;
64936;SDS011;51452;47.698;19.050;2022-11-20T11:14:41;19.30;;;8.87;;
64936;SDS011;51452;47.698;19.050;2022-11-20T11:17:23;20.83;;;9.63;;
64936;SDS011;51452;47.698;19.050;2022-11-20T11:20:14;20.07;;;9.77;;
64936;SDS011;51452;47.698;19.050;2022-11-20T11:22:48;19.23;;;10.30;;
64936;SDS011;51452;47.698;19.050;2022-11-20T11:25:31;20.43;;;9.60;;
64936;SDS011;51452;47.698;19.050;2022-11-20T11:27:59;21.23;;;9.48;;
64936;SDS011;51452;47.698;19.050;2022-11-20T11:30:29;18.33;;;8.20;;
64936;SDS011;51452;47.698;19.050;2022-11-20T11:33:06;20.27;;;9.47;;
64936;SDS011;51452;47.698;19.050;2022-11-20T11:35:44;19.60;;;9.87;;
64936;SDS011;51452;47.698;19.050;2022-11-20T11:38:14;20.67;;;10.50;;
64936;SDS011;51452;47.698;19.050;2022-11-20T11:40:43;19.70;;;10.00;;
64936;SDS011;51452;47.698;19.050;2022-11-20T11:43:19;23.10;;;9.63;;
64936;SDS011;51452;47.698;19.050;2022-11-20T11:46:21;21.87;;;10.73;;
64936;SDS011;51452;47.698;19.050;2022-11-20T11:49:00;22.47;;;10.33;;
64936;SDS011;51452;47.698;19.050;2022-11-20T11:51:31;21.67;;;11.03;;
64936;SDS011;51452;47.698;19.050;2022-11-20T11:54:22;20.33;;;9.90;;
64936;SDS011;51452;47.698;19.050;2022-11-20T11:56:50;21.80;;;10.47;;
64936;SDS011;51452;47.698;19.050;2022-11-20T12:04:59;19.73;;;10.00;;
64936;SDS011;51452;47.698;19.050;2022-11-20T12:10:23;20.17;;;10.30;;
64936;SDS011;51452;47.698;19.050;2022-11-20T12:13:00;21.07;;;10.07;;
64936;SDS011;51452;47.698;19.050;2022-11-20T12:15:30;23.63;;;11.40;;
64936;SDS011;51452;47.698;19.050;2022-11-20T12:17:57;23.53;;;10.63;;
64936;SDS011;51452;47.698;19.050;2022-11-20T12:20:25;20.73;;;10.17;;
64936;SDS011;51452;47.698;19.050;2022-11-20T12:26:00;22.33;;;10.83;;
64936;SDS011;51452;47.698;19.050;2022-11-20T12:28:41;23.07;;;11.37;;
64936;SDS011;51452;47.698;19.050;2022-11-20T12:31:27;23.27;;;12.03;;
64936;SDS011;51452;47.698;19.050;2022-11-20T12:36:57;24.87;;;12.10;;
64936;SDS011;51452;47.698;19.050;2022-11-20T12:39:41;27.80;;;12.93;;
64936;SDS011;51452;47.698;19.050;2022-11-20T12:48:24;27.87;;;12.53;;
64936;SDS011;51452;47.698;19.050;2022-11-20T13:01:30;25.23;;;11.83;;
64936;SDS011;51452;47.698;19.050;2022-11-20T13:06:37;28.07;;;13.40;;
64936;SDS011;51452;47.698;19.050;2022-11-20T13:09:06;24.20;;;12.80;;
64936;SDS011;51452;47.698;19.050;2022-11-20T13:11:37;28.37;;;12.57;;
64936;SDS011;51452;47.698;19.050;2022-11-20T13:17:15;28.03;;;12.93;;
64936;SDS011;51452;47.698;19.050;2022-11-20T13:20:02;28.27;;;12.63;;
64936;SDS011;51452;47.698;19.050;2022-11-20T13:22:44;26.57;;;12.37;;
64936;SDS011;51452;47.698;19.050;2022-11-20T13:25:27;26.50;;;11.97;;
64936;SDS011;51452;47.698;19.050;2022-11-20T13:27:58;25.40;;;12.60;;
64936;SDS011;51452;47.698;19.050;2022-11-20T13:30:26;28.47;;;12.70;;
64936;SDS011;51452;47.698;19.050;2022-11-20T13:40:32;25.43;;;11.77;;
64936;SDS011;51452;47.698;19.050;2022-11-20T13:46:01;24.93;;;12.50;;
64936;SDS011;51452;47.698;19.050;2022-11-20T13:48:38;25.20;;;12.17;;
64936;SDS011;51452;47.698;19.050;2022-11-20T14:02:15;26.43;;;13.07;;
64936;SDS011;51452;47.698;19.050;2022-11-20T14:04:43;28.57;;;13.13;;
64936;SDS011;51452;47.698;19.050;2022-11-20T14:07:11;26.90;;;12.63;;
64936;SDS011;51452;47.698;19.050;2022-11-20T14:09:37;25.63;;;11.77;;
64936;SDS011;51452;47.698;19.050;2022-11-20T14:12:03;25.67;;;12.83;;
64936;SDS011;51452;47.698;19.050;2022-11-20T14:14:30;24.37;;;11.97;;
64936;SDS011;51452;47.698;19.050;2022-11-20T14:17:17;28.30;;;12.87;;
64936;SDS011;51452;47.698;19.050;2022-11-20T14:19:45;26.90;;;11.87;;
64936;SDS011;51452;47.698;19.050;2022-11-20T14:24:46;27.63;;;12.97;;
64936;SDS011;51452;47.698;19.050;2022-11-20T14:27:26;28.40;;;12.50;;
64936;SDS011;51452;47.698;19.050;2022-11-20T14:29:51;26.17;;;11.53;;
64936;SDS011;51452;47.698;19.050;2022-11-20T14:32:17;25.70;;;13.10;;
64936;SDS011;51452;47.698;19.050;2022-11-20T14:34:45;26.30;;;12.43;;
64936;SDS011;51452;47.698;19.050;2022-11-20T14:37:17;27.97;;;12.33;;
64936;SDS011;51452;47.698;19.050;2022-11-20T14:39:50;25.50;;;12.13;;
64936;SDS011;51452;47.698;19.050;2022-11-20T14:42:17;29.63;;;14.23;;
64936;SDS011;51452;47.698;19.050;2022-11-20T14:44:47;29.27;;;13.60;;
64936;SDS011;51452;47.698;19.050;2022-11-20T14:47:15;27.13;;;14.20;;
64936;SDS011;51452;47.698;19.050;2022-11-20T14:49:44;32.43;;;16.30;;
64936;SDS011;51452;47.698;19.050;2022-11-20T14:52:14;29.50;;;14.93;;
64936;SDS011;51452;47.698;19.050;2022-11-20T14:54:46;29.33;;;14.27;;
64936;SDS011;51452;47.698;19.050;2022-11-20T14:57:26;28.70;;;13.77;;
64936;SDS011;51452;47.698;19.050;2022-11-20T15:02:58;25.03;;;13.13;;
64936;SDS011;51452;47.698;19.050;2022-11-20T15:05:25;25.23;;;11.73;;
64936;SDS011;51452;47.698;19.050;2022-11-20T15:08:09;23.87;;;12.53;;
64936;SDS011;51452;47.698;19.050;2022-11-20T15:10:35;24.33;;;13.00;;
64936;SDS011;51452;47.698;19.050;2022-11-20T15:13:03;28.60;;;13.20;;
64936;SDS011;51452;47.698;19.050;2022-11-20T15:15:50;25.97;;;11.97;;
64936;SDS011;51452;47.698;19.050;2022-11-20T15:20:57;25.23;;;12.40;;
64936;SDS011;51452;47.698;19.050;2022-11-20T15:23:25;27.63;;;11.87;;
64936;SDS011;51452;47.698;19.050;2022-11-20T15:25:52;24.43;;;11.80;;
64936;SDS011;51452;47.698;19.050;2022-11-20T15:30:47;21.50;;;11.97;;
64936;SDS011;51452;47.698;19.050;2022-11-20T15:33:14;22.70;;;11.13;;
64936;SDS011;51452;47.698;19.050;2022-11-20T15:35:40;28.37;;;12.00;;
64936;SDS011;51452;47.698;19.050;2022-11-20T15:38:06;28.23;;;12.00;;
64936;SDS011;51452;47.698;19.050;2022-11-20T15:40:31;32.90;;;13.67;;
64936;SDS011;51452;47.698;19.050;2022-11-20T15:42:56;31.63;;;14.07;;
64936;SDS011;51452;47.698;19.050;2022-11-20T15:45:28;32.37;;;16.17;;
64936;SDS011;51452;47.698;19.050;2022-11-20T15:47:58;36.47;;;16.60;;
64936;SDS011;51452;47.698;19.050;2022-11-20T15:50:26;29.17;;;16.03;;
64936;SDS011;51452;47.698;19.050;2022-11-20T15:52:54;32.23;;;15.40;;
64936;SDS011;51452;47.698;19.050;2022-11-20T15:55:20;33.17;;;17.93;;
64936;SDS011;51452;47.698;19.050;2022-11-20T15:57:45;27.73;;;14.93;;
64936;SDS011;51452;47.698;19.050;2022-11-20T16:00:11;30.23;;;15.00;;
64936;SDS011;51452;47.698;19.050;2022-11-20T16:02:37;34.57;;;15.80;;
64936;SDS011;51452;47.698;19.050;2022-11-20T16:05:02;26.23;;;13.23;;
64936;SDS011;51452;47.698;19.050;2022-11-20T16:07:28;30.07;;;13.67;;
64936;SDS011;51452;47.698;19.050;2022-11-20T16:09:53;27.43;;;13.13;;
64936;SDS011;51452;47.698;19.050;2022-11-20T16:12:20;29.00;;;12.67;;
64936;SDS011;51452;47.698;19.050;2022-11-20T16:15:21;27.53;;;12.57;;